Terminal Aerodrome Forecast
Issued by NWS

Home | Current Version | Previous Version | Text Only | Print | Product List | Glossary On
Versions: 1 2 3 4 5 6 7 8 9 10 11 12 13 14 15
000
FTUS45 KGGW 300700 AAA
TAFSDY
TAF AMD
KSDY 300740Z 3008/0106 01009KT 1SM HZ VCSH BKN100
     FM301200 VRB05KT 5SM HZ VCSH BKN110
     FM010000 09009KT 6SM -TSRA OVC050CB
      AMD LTD TO CLD VIS AND WIND=

USA.gov is the U.S. government's official web portal to all federal, state and local government web resources and services.